Terminal Aerodrome Forecast
Issued by NWS

Home | Current Version | Previous Version | Text Only | Print | Product List | Glossary On
Versions: 1 2 3 4 5 6 7 8 9 10 11 12 13 14 15
000
FTUS46 KPDT 010210 AAA
TAFBDN
TAF AMD
KBDN 010210Z 0102/0124 14007KT P6SM SCT150
     FM010700 17007KT P6SM FEW150
     FM011000 VRB05KT P6SM FEW150 SCT250
     FM011900 35011KT P6SM VCSH FEW120 SCT150=

USA.gov is the U.S. government's official web portal to all federal, state and local government web resources and services.